Time;durP1;ratioP1;P1;durP2;ratioP2;P2;SDS_P1;SDS_P2;PMS_P1;PMS_P2;Temp;Humidity;BMP_temperature;BMP_pressure;BME280_temperature;BME280_humidity;BME280_pressure;Samples;Min_cycle;Max_cycle;Signal;HPM_P1;HPM_P2
2023/12/10 00:01:06;;;;;;;23.10;21.20;;;;;;;2.51;71.87;94852.94;5055814;28;20229;-68
2023/12/10 00:03:33;;;;;;;24.02;22.02;;;;;;;2.49;71.57;94855.16;5054964;28;20190;-68
2023/12/10 00:06:00;;;;;;;24.45;22.35;;;;;;;2.49;72.42;94857.88;5056286;28;20205;-68
2023/12/10 00:08:27;;;;;;;24.02;21.92;;;;;;;2.47;72.14;94855.47;5056110;28;20210;-68
2023/12/10 00:10:55;;;;;;;22.85;20.77;;;;;;;2.47;72.05;94855.47;5057217;28;20209;-68
2023/12/10 00:13:25;;;;;;;21.27;19.45;;;;;;;2.43;71.76;94857.16;5056591;28;20205;-68
2023/12/10 00:15:52;;;;;;;21.67;19.88;;;;;;;2.40;72.48;94861.34;5054067;28;20328;-68
2023/12/10 00:18:19;;;;;;;21.25;19.45;;;;;;;2.42;72.51;94858.28;5056211;28;20255;-68
2023/12/10 00:20:46;;;;;;;20.27;18.67;;;;;;;2.47;72.27;94868.25;5056222;28;20214;-68
2023/12/10 00:23:13;;;;;;;21.77;19.88;;;;;;;2.49;72.35;94863.31;5056542;28;20201;-68
2023/12/10 00:25:40;;;;;;;21.40;19.50;;;;;;;2.45;71.75;94867.78;5056559;28;20202;-68
2023/12/10 00:28:08;;;;;;;21.17;19.38;;;;;;;2.47;72.42;94860.91;5056087;28;20205;-68
2023/12/10 00:30:37;;;;;;;20.52;18.67;;;;;;;2.45;72.51;94870.50;5056361;28;20663;-68
2023/12/10 00:33:05;;;;;;;19.90;18.30;;;;;;;2.45;72.42;94867.78;5055548;28;20194;-68
2023/12/10 00:35:32;;;;;;;19.05;17.48;;;;;;;2.41;72.32;94860.22;5055964;28;20209;-68
2023/12/10 00:37:59;;;;;;;19.80;18.10;;;;;;;2.42;72.50;94858.28;5055788;28;20209;-68
2023/12/10 00:40:28;;;;;;;19.45;17.75;;;;;;;2.42;72.44;94850.94;5055915;28;20193;-68
2023/12/10 00:42:58;;;;;;;19.42;17.77;;;;;;;2.39;72.46;94846.09;5055775;28;20201;-68
2023/12/10 00:45:26;;;;;;;20.77;18.98;;;;;;;2.36;72.39;94845.91;5055433;28;20301;-68
2023/12/10 00:47:53;;;;;;;20.15;18.40;;;;;;;2.35;72.39;94844.28;5055269;28;20224;-68
2023/12/10 00:50:20;;;;;;;19.33;17.73;;;;;;;2.34;72.78;94848.94;5055784;28;20194;-68
2023/12/10 00:52:47;;;;;;;20.55;18.65;;;;;;;2.29;72.90;94843.63;5055512;28;20312;-68
2023/12/10 00:55:15;;;;;;;20.63;18.92;;;;;;;2.33;73.07;94847.34;5055235;28;20193;-68
2023/12/10 00:57:42;;;;;;;20.75;19.02;;;;;;;2.39;72.73;94856.97;5055251;28;20208;-68
2023/12/10 01:00:10;;;;;;;19.60;17.92;;;;;;;2.41;73.12;94852.03;5055350;28;20206;-68
2023/12/10 01:02:38;;;;;;;20.45;18.73;;;;;;;2.41;73.02;94852.03;5055854;28;20271;-68
2023/12/10 01:05:06;;;;;;;19.85;18.08;;;;;;;2.46;72.79;94845.69;5055450;28;20198;-68
2023/12/10 01:07:33;;;;;;;19.67;17.95;;;;;;;2.46;72.61;94844.88;5055251;28;20224;-68
2023/12/10 01:10:00;;;;;;;19.73;18.13;;;;;;;2.46;72.81;94840.22;5055171;28;20259;-68
2023/12/10 01:12:29;;;;;;;20.33;18.55;;;;;;;2.47;72.69;94839.13;5055549;28;20194;-68
2023/12/10 01:14:57;;;;;;;21.75;19.85;;;;;;;2.46;72.44;94837.50;5054659;28;20240;-69
2023/12/10 01:17:24;;;;;;;20.98;19.00;;;;;;;2.42;72.51;94834.59;5053928;28;20198;-69
2023/12/10 01:19:52;;;;;;;20.38;18.58;;;;;;;2.43;72.69;94824.50;5053630;28;20660;-69
2023/12/10 01:22:19;;;;;;;20.52;18.70;;;;;;;2.35;72.15;94826.03;5053531;28;20665;-68
2023/12/10 01:24:49;;;;;;;20.13;18.33;;;;;;;2.32;72.95;94823.94;5054128;28;20198;-68
2023/12/10 01:27:15;;;;;;;20.63;18.98;;;;;;;2.36;72.92;94815.97;5054118;28;20626;-68
2023/12/10 01:29:43;;;;;;;20.58;18.77;;;;;;;2.34;72.87;94812.75;5054694;28;20525;-68
2023/12/10 01:32:11;;;;;;;20.08;18.42;;;;;;;2.29;73.46;94802.78;5054015;28;20208;-68
2023/12/10 01:34:38;;;;;;;21.27;19.48;;;;;;;2.30;73.13;94795.44;5054317;28;20616;-68
2023/12/10 01:37:07;;;;;;;20.55;18.85;;;;;;;2.30;73.17;94807.13;5055115;28;20202;-68
2023/12/10 01:39:34;;;;;;;20.95;19.05;;;;;;;2.33;73.47;94798.34;5053989;28;20185;-68
2023/12/10 01:42:02;;;;;;;22.70;20.75;;;;;;;2.34;73.24;94794.50;5053316;28;20214;-68
2023/12/10 01:44:30;;;;;;;22.58;20.58;;;;;;;2.36;73.13;94803.19;5053553;28;20230;-68
2023/12/10 01:46:58;;;;;;;23.23;21.25;;;;;;;2.41;73.37;94803.03;5053449;28;20206;-68
2023/12/10 01:49:28;;;;;;;23.10;21.10;;;;;;;2.46;72.77;94801.31;5053297;28;20198;-68
2023/12/10 01:51:55;;;;;;;22.77;20.67;;;;;;;2.47;72.83;94798.31;5054078;28;20201;-68
2023/12/10 01:54:28;;;;;;;23.13;21.13;;;;;;;2.50;72.70;94811.28;5054068;28;20301;-68
2023/12/10 01:56:56;;;;;;;22.98;20.88;;;;;;;2.49;72.28;94812.41;5053343;28;20237;-68
2023/12/10 01:59:23;;;;;;;23.05;21.02;;;;;;;2.47;72.64;94819.25;5053666;28;20209;-68
2023/12/10 02:01:53;;;;;;;22.35;20.40;;;;;;;2.49;72.50;94817.84;5054098;28;20267;-68
2023/12/10 02:04:20;;;;;;;22.50;20.50;;;;;;;2.49;72.20;94806.16;5053653;28;20201;-68
2023/12/10 02:06:48;;;;;;;23.20;21.20;;;;;;;2.46;71.99;94802.13;5053664;28;20255;-68
2023/12/10 02:09:18;;;;;;;22.48;20.48;;;;;;;2.45;72.27;94797.00;5053784;28;20209;-68
2023/12/10 02:11:46;;;;;;;22.88;20.88;;;;;;;2.42;72.92;94803.84;5053636;28;20206;-68
2023/12/10 02:14:14;;;;;;;22.95;20.95;;;;;;;2.47;72.96;94803.75;4987228;28;1860221;-68
2023/12/10 02:16:43;;;;;;;22.80;20.75;;;;;;;2.44;72.10;94798.13;5053786;28;20247;-68
2023/12/10 02:19:10;;;;;;;23.00;21.00;;;;;;;2.39;72.45;94788.13;5054724;28;20241;-68
2023/12/10 02:21:38;;;;;;;22.15;20.25;;;;;;;2.43;72.37;94797.28;5053828;28;20206;-68
2023/12/10 02:24:07;;;;;;;22.02;20.13;;;;;;;2.42;72.68;94792.97;5054604;28;20198;-68
2023/12/10 02:26:35;;;;;;;22.00;20.00;;;;;;;2.42;72.68;94798.41;5055760;28;20247;-68
2023/12/10 02:29:06;;;;;;;22.85;20.85;;;;;;;2.45;72.42;94794.28;5058287;28;20213;-68
2023/12/10 02:31:33;;;;;;;21.50;19.70;;;;;;;2.42;72.93;94788.31;5058263;28;20202;-68
2023/12/10 02:34:00;;;;;;;21.67;19.77;;;;;;;2.43;72.66;94780.94;5057886;28;20204;-68
2023/12/10 02:36:27;;;;;;;22.65;20.60;;;;;;;2.44;72.61;94784.50;5058083;28;20259;-68
2023/12/10 02:38:54;;;;;;;22.42;20.42;;;;;;;2.44;72.69;94782.59;5057801;28;20186;-68
2023/12/10 02:41:21;;;;;;;22.80;20.80;;;;;;;2.46;72.53;94776.81;5057851;28;20221;-68
2023/12/10 02:43:49;;;;;;;22.70;20.70;;;;;;;2.45;72.54;94783.38;5057458;28;20243;-68
2023/12/10 02:46:16;;;;;;;22.35;20.25;;;;;;;2.44;72.62;94770.91;5057433;28;20641;-68
2023/12/10 02:48:43;;;;;;;22.08;20.17;;;;;;;2.45;72.75;94776.00;5057841;28;20525;-68
2023/12/10 02:51:10;;;;;;;21.90;19.90;;;;;;;2.47;72.75;94778.41;5057564;28;20182;-68
2023/12/10 02:53:37;;;;;;;23.65;21.38;;;;;;;2.49;72.55;94781.66;5058412;28;20210;-68
2023/12/10 02:56:05;;;;;;;22.75;20.75;;;;;;;2.48;72.29;94778.13;5057484;28;20637;-68
2023/12/10 02:58:32;;;;;;;23.48;21.48;;;;;;;2.46;72.07;94791.22;5057450;28;20620;-68
2023/12/10 03:01:02;;;;;;;22.98;21.02;;;;;;;2.47;72.21;94778.41;5057309;28;20553;-68
2023/12/10 03:03:29;;;;;;;22.27;20.38;;;;;;;2.45;72.56;94776.00;5057370;28;20202;-68
2023/12/10 03:05:57;;;;;;;23.50;21.40;;;;;;;2.44;72.33;94771.69;5057395;28;20201;-68
2023/12/10 03:08:24;;;;;;;23.20;21.05;;;;;;;2.42;72.54;94763.81;5057215;28;20214;-68
2023/12/10 03:10:51;;;;;;;23.23;21.17;;;;;;;2.46;72.46;94772.16;5057762;28;20235;-68
2023/12/10 03:13:18;;;;;;;22.58;20.52;;;;;;;2.44;72.63;94765.44;5057038;28;20239;-68
2023/12/10 03:15:45;;;;;;;23.75;21.58;;;;;;;2.44;72.84;94754.56;5058214;28;20233;-68
2023/12/10 03:18:16;;;;;;;23.27;21.27;;;;;;;2.41;72.81;94759.50;5057688;28;20174;-68
2023/12/10 03:20:43;;;;;;;21.80;19.95;;;;;;;2.41;72.50;94767.66;5057225;28;20206;-68
2023/12/10 03:23:10;;;;;;;23.10;21.00;;;;;;;2.44;72.13;94762.72;5056206;28;20247;-68
2023/12/10 03:25:37;;;;;;;23.38;21.27;;;;;;;2.41;72.67;94761.41;5057325;28;20194;-68
2023/12/10 03:28:05;;;;;;;21.90;19.98;;;;;;;2.41;72.32;94764.94;5039926;28;20664;-68
2023/12/10 03:30:32;;;;;;;22.50;20.17;;;;;;;2.39;72.35;94772.59;5057362;28;20201;-68
2023/12/10 03:32:59;;;;;;;21.67;19.67;;;;;;;2.41;72.47;94775.81;5040527;28;20259;-68
2023/12/10 03:35:27;;;;;;;22.27;20.27;;;;;;;2.45;72.35;94788.81;5040426;28;20189;-67
2023/12/10 03:37:55;;;;;;;21.65;19.75;;;;;;;2.42;71.76;94784.78;5040002;28;20210;-67
2023/12/10 03:40:24;;;;;;;21.58;19.67;;;;;;;2.41;71.94;94767.66;5040563;28;20197;-67
2023/12/10 03:42:51;;;;;;;22.33;20.33;;;;;;;2.40;71.61;94766.06;5040144;28;20214;-68
2023/12/10 03:45:18;;;;;;;21.88;19.98;;;;;;;2.39;71.85;94774.53;5040504;28;20190;-68
2023/12/10 03:47:47;;;;;;;21.20;19.30;;;;;;;2.38;72.24;94765.56;5057262;28;20210;-69
2023/12/10 03:50:17;;;;;;;21.42;19.55;;;;;;;2.39;72.45;94772.59;5039913;28;20194;-68
2023/12/10 03:52:48;;;;;;;20.83;19.02;;;;;;;2.40;72.72;94773.44;5040454;28;20215;-68
2023/12/10 03:55:17;;;;;;;21.55;19.65;;;;;;;2.39;72.73;94779.97;5039487;28;20547;-68
2023/12/10 03:57:44;;;;;;;20.73;18.95;;;;;;;2.37;72.74;94772.13;5039683;28;20202;-68
2023/12/10 04:00:11;;;;;;;20.92;19.02;;;;;;;2.39;72.43;94775.31;5039762;28;20265;-68
2023/12/10 04:02:40;;;;;;;20.33;18.63;;;;;;;2.37;72.02;94785.72;5040167;28;20225;-69
2023/12/10 04:05:11;;;;;;;21.95;20.05;;;;;;;2.36;71.68;94783.28;5056797;28;20198;-69
2023/12/10 04:07:39;;;;;;;23.00;21.00;;;;;;;2.36;72.21;94780.56;5040273;28;20209;-68
2023/12/10 04:10:08;;;;;;;22.00;20.00;;;;;;;2.34;72.64;94780.09;5040148;28;20292;-68
2023/12/10 04:12:35;;;;;;;22.48;20.48;;;;;;;2.36;72.41;94786.00;5056271;28;20212;-68
2023/12/10 04:15:02;;;;;;;21.48;19.65;;;;;;;2.37;72.38;94779.47;5055427;28;20287;-68
2023/12/10 04:17:30;;;;;;;21.58;19.67;;;;;;;2.39;72.61;94779.97;5077034;28;20201;-68
2023/12/10 04:19:57;;;;;;;23.23;21.05;;;;;;;2.34;72.23;94780.91;5076780;28;20193;-68
2023/12/10 04:22:24;;;;;;;21.67;19.77;;;;;;;2.33;72.32;94787.47;5076192;28;20209;-68
2023/12/10 04:24:51;;;;;;;22.35;20.15;;;;;;;2.32;72.00;94785.81;5075859;28;20206;-68
2023/12/10 04:27:22;;;;;;;21.40;19.55;;;;;;;2.30;72.06;94777.19;5075489;28;20197;-68
2023/12/10 04:29:50;;;;;;;22.50;20.52;;;;;;;2.31;72.13;94777.97;5075833;28;20212;-68
2023/12/10 04:32:17;;;;;;;22.55;20.50;;;;;;;2.27;72.24;94780.50;5076067;28;20193;-68
2023/12/10 04:34:44;;;;;;;23.08;21.02;;;;;;;2.28;72.49;94781.31;5075569;28;20201;-68
2023/12/10 04:37:11;;;;;;;22.38;20.30;;;;;;;2.28;72.69;94782.13;5076423;28;20238;-68
2023/12/10 04:39:38;;;;;;;23.17;20.98;;;;;;;2.28;73.01;94773.16;5075276;28;20250;-68
2023/12/10 04:42:05;;;;;;;22.85;20.85;;;;;;;2.27;72.67;94775.06;5075915;28;20217;-68
2023/12/10 04:44:34;;;;;;;22.60;20.60;;;;;;;2.24;72.66;94767.50;5076027;28;20205;-69
2023/12/10 04:47:01;;;;;;;22.95;20.85;;;;;;;2.25;73.15;94766.44;5075679;28;20204;-68
2023/12/10 04:49:28;;;;;;;23.48;21.33;;;;;;;2.22;73.13;94769.75;5075222;28;20514;-68
2023/12/10 04:51:56;;;;;;;24.52;22.35;;;;;;;2.25;73.32;94781.91;5075842;28;20197;-68
2023/12/10 04:54:23;;;;;;;24.15;21.90;;;;;;;2.27;73.48;94783.22;5075673;28;20193;-68
2023/12/10 04:56:50;;;;;;;23.67;21.58;;;;;;;2.23;73.41;94779.53;5074975;28;20192;-68
2023/12/10 04:59:19;;;;;;;25.85;23.45;;;;;;;2.20;73.57;94782.84;5075105;28;20626;-68
2023/12/10 05:01:50;;;;;;;26.83;24.42;;;;;;;2.19;73.77;94773.09;5075902;28;20232;-68
2023/12/10 05:04:17;;;;;;;26.70;24.40;;;;;;;2.15;73.64;94782.97;5075724;28;20207;-69
2023/12/10 05:06:44;;;;;;;28.38;25.98;;;;;;;2.11;73.64;94782.78;5075636;28;20189;-69
2023/12/10 05:09:11;;;;;;;26.33;24.02;;;;;;;2.10;74.40;94781.16;5075358;28;20209;-69
2023/12/10 05:11:38;;;;;;;26.52;24.25;;;;;;;2.11;74.24;94784.72;5074690;28;20633;-69
2023/12/10 05:14:06;;;;;;;26.05;23.73;;;;;;;2.10;74.59;94781.16;5074308;28;20626;-69
2023/12/10 05:16:33;;;;;;;27.73;25.23;;;;;;;2.13;74.34;94783.28;5058309;28;20205;-69
2023/12/10 05:19:02;;;;;;;28.48;25.77;;;;;;;2.13;74.72;94788.72;5057938;28;20188;-69
2023/12/10 05:21:30;;;;;;;27.88;25.27;;;;;;;2.15;74.70;94777.53;5058454;28;20218;-69
2023/12/10 05:23:57;;;;;;;25.90;23.60;;;;;;;2.09;74.15;94784.19;5058613;28;20213;-69
2023/12/10 05:26:24;;;;;;;24.08;21.88;;;;;;;2.06;74.47;94784.81;5057737;28;20670;-69
2023/12/10 05:28:51;;;;;;;23.20;21.15;;;;;;;2.05;74.25;94786.72;5058503;28;20197;-68
2023/12/10 05:31:18;;;;;;;23.80;21.70;;;;;;;2.03;74.16;94797.09;5075065;28;20205;-69
2023/12/10 05:33:45;;;;;;;22.33;20.33;;;;;;;2.06;74.11;94790.25;5058461;28;20181;-68
2023/12/10 05:36:14;;;;;;;21.50;19.70;;;;;;;2.04;74.39;94793.28;5058109;28;20212;-68
2023/12/10 05:38:41;;;;;;;24.45;22.35;;;;;;;2.09;74.43;94789.63;5058312;28;20223;-68
2023/12/10 05:41:08;;;;;;;22.42;20.48;;;;;;;2.11;73.81;94798.31;5057893;28;20588;-68
2023/12/10 05:43:35;;;;;;;21.77;19.88;;;;;;;2.08;74.32;94785.31;5075161;28;20209;-68
2023/12/10 05:46:02;;;;;;;22.63;20.60;;;;;;;2.08;73.93;94779.88;5074399;28;20193;-68
2023/12/10 05:48:29;;;;;;;23.25;21.23;;;;;;;2.03;74.09;94774.53;5075098;28;20243;-68
2023/12/10 05:50:57;;;;;;;21.67;19.88;;;;;;;1.95;74.20;94776.06;5058492;28;20208;-68
2023/12/10 05:53:25;;;;;;;21.65;19.65;;;;;;;1.97;74.67;94773.06;5057587;28;20205;-69
2023/12/10 05:55:52;;;;;;;20.27;18.27;;;;;;;1.98;74.43;94780.09;5057794;28;20620;-68
2023/12/10 05:58:19;;;;;;;19.92;17.90;;;;;;;1.96;74.26;94776.84;5057574;28;20201;-69
2023/12/10 06:00:47;;;;;;;20.17;18.27;;;;;;;1.97;74.07;94775.78;5056628;28;20682;-69
2023/12/10 06:03:17;;;;;;;20.10;18.20;;;;;;;1.98;74.38;94782.81;5074487;28;20216;-69
2023/12/10 06:05:44;;;;;;;20.98;18.98;;;;;;;1.99;74.03;94778.97;5074714;28;20197;-69
2023/12/10 06:08:11;;;;;;;20.73;18.67;;;;;;;2.01;73.91;94782.22;5058153;28;20605;-68
2023/12/10 06:10:42;;;;;;;21.08;19.23;;;;;;;1.99;74.12;94779.78;5057500;28;20208;-69
2023/12/10 06:13:13;;;;;;;21.38;19.38;;;;;;;1.97;74.48;94784.72;5074492;28;20211;-69
2023/12/10 06:15:41;;;;;;;22.13;20.23;;;;;;;1.94;74.48;94779.91;5073355;28;20278;-69
2023/12/10 06:18:08;;;;;;;21.75;19.85;;;;;;;1.93;74.44;94776.38;5057648;28;20258;-69
2023/12/10 06:20:38;;;;;;;22.23;20.23;;;;;;;1.92;74.75;94787.53;5074410;28;20200;-69
2023/12/10 06:23:07;;;;;;;20.63;18.73;;;;;;;1.89;75.02;94788.97;5057378;28;20213;-69
2023/12/10 06:25:50;;;;;;;21.67;19.70;;;;;;;1.86;74.63;94797.75;5058130;28;20228;-69
2023/12/10 06:28:18;;;;;;;21.38;19.48;;;;;;;1.87;74.97;94791.19;5057859;28;20232;-69
2023/12/10 06:30:45;;;;;;;21.83;19.83;;;;;;;1.88;74.75;94794.72;5057095;28;20189;-69
2023/12/10 06:33:13;;;;;;;21.83;19.83;;;;;;;1.88;74.79;94787.34;5057510;28;20205;-69
2023/12/10 06:35:40;;;;;;;21.95;20.08;;;;;;;1.85;75.18;94790.69;5074510;28;20197;-69
2023/12/10 06:38:07;;;;;;;22.58;20.63;;;;;;;1.84;74.95;94791.78;5074280;28;20201;-69
2023/12/10 06:40:38;;;;;;;21.40;19.55;;;;;;;1.87;75.42;94795.81;5074166;28;20193;-69
2023/12/10 06:43:09;;;;;;;22.40;20.30;;;;;;;1.89;75.30;94805.28;5056803;28;20216;-70
2023/12/10 06:45:39;;;;;;;30.90;28.20;;;;;;;1.90;75.31;94806.91;5056950;28;20428;-71
2023/12/10 06:48:10;;;;;;;38.03;34.30;;;;;;;1.90;75.40;94803.38;5056819;28;20318;-68
2023/12/10 06:50:37;;;;;;;40.05;36.38;;;;;;;1.91;75.68;94813.94;5057919;28;20200;-68
2023/12/10 06:53:04;;;;;;;31.35;28.52;;;;;;;1.92;75.56;94821.00;5074029;28;20185;-68
2023/12/10 06:55:33;;;;;;;27.23;24.73;;;;;;;1.95;75.87;94816.84;5057841;28;20181;-68
2023/12/10 06:58:00;;;;;;;24.65;22.35;;;;;;;1.98;75.78;94810.00;5074546;28;20217;-68
2023/12/10 07:00:32;;;;;;;26.63;24.25;;;;;;;2.02;75.23;94819.16;5057394;28;20198;-68
2023/12/10 07:02:59;;;;;;;27.08;24.65;;;;;;;2.08;75.93;94817.97;5073581;28;20212;-68
2023/12/10 07:05:27;;;;;;;27.27;24.88;;;;;;;2.12;75.20;94827.91;5057591;28;20254;-68
2023/12/10 07:07:56;;;;;;;26.50;24.10;;;;;;;2.12;74.97;94825.19;5056814;28;20584;-68
2023/12/10 07:10:23;;;;;;;25.08;22.83;;;;;;;2.15;75.00;94824.59;5073329;28;20197;-68
2023/12/10 07:12:53;;;;;;;26.17;23.95;;;;;;;2.17;74.97;94819.63;5075761;28;20198;-67
2023/12/10 07:15:22;;;;;;;26.88;24.48;;;;;;;2.22;75.11;94824.19;5077169;28;20760;-68
2023/12/10 07:17:51;;;;;;;26.63;24.25;;;;;;;2.27;74.65;94820.53;5078037;28;20193;-68
2023/12/10 07:20:19;;;;;;;27.35;25.02;;;;;;;2.35;74.94;94822.53;5078042;28;20185;-67
2023/12/10 07:22:47;;;;;;;26.92;24.63;;;;;;;2.42;75.16;94818.25;5077829;28;20224;-68
2023/12/10 07:25:15;;;;;;;27.88;25.45;;;;;;;2.57;74.83;94821.75;5077503;28;20208;-67
2023/12/10 07:27:46;;;;;;;27.88;25.48;;;;;;;2.62;73.81;94825.16;5060043;28;20235;-68
2023/12/10 07:30:13;;;;;;;26.65;24.35;;;;;;;2.75;73.53;94818.03;5060157;28;20193;-67
2023/12/10 07:32:42;;;;;;;25.33;22.95;;;;;;;2.94;73.85;94822.50;5077843;28;20208;-67
2023/12/10 07:35:11;;;;;;;24.90;22.75;;;;;;;3.00;73.18;94813.88;5060471;28;20266;-67
2023/12/10 07:37:40;;;;;;;25.67;23.38;;;;;;;3.10;72.64;94812.81;5076805;28;20216;-67
2023/12/10 07:40:09;;;;;;;26.02;23.73;;;;;;;3.22;72.48;94821.22;5060136;28;20250;-67
2023/12/10 07:42:36;;;;;;;25.70;23.42;;;;;;;3.29;72.11;94818.84;5076876;28;20548;-67
2023/12/10 07:45:05;;;;;;;26.25;24.05;;;;;;;3.26;71.45;94818.69;5060437;28;20250;-67
2023/12/10 07:47:32;;;;;;;26.65;24.35;;;;;;;3.24;71.75;94824.47;5060489;28;20205;-67
2023/12/10 07:50:01;;;;;;;26.73;24.33;;;;;;;3.29;71.98;94821.59;5076382;28;20197;-68
2023/12/10 07:52:30;;;;;;;27.13;24.63;;;;;;;3.33;71.49;94825.28;5059809;28;20208;-67
2023/12/10 07:54:57;;;;;;;27.27;24.83;;;;;;;3.29;71.55;94832.50;5059985;28;20235;-67
2023/12/10 07:57:24;;;;;;;26.23;23.92;;;;;;;3.30;71.73;94830.56;5060082;28;20209;-67
2023/12/10 07:59:52;;;;;;;27.45;24.85;;;;;;;3.30;72.17;94836.00;5076959;28;20209;-67
2023/12/10 08:02:19;;;;;;;28.30;25.75;;;;;;;3.30;71.71;94827.84;5076727;28;20620;-68
2023/12/10 08:04:46;;;;;;;30.00;27.30;;;;;;;3.29;71.73;94837.94;5075924;28;20656;-68
2023/12/10 08:07:17;;;;;;;30.17;27.50;;;;;;;3.22;71.13;94840.31;5077110;28;20573;-68
2023/12/10 08:09:45;;;;;;;30.38;27.65;;;;;;;3.17;71.72;94835.00;5076436;28;20201;-68
2023/12/10 08:12:16;;;;;;;30.50;27.80;;;;;;;3.13;71.90;94839.47;5075838;28;20240;-68
2023/12/10 08:14:43;;;;;;;31.48;28.67;;;;;;;3.07;72.00;94833.31;5082270;28;20247;-68
2023/12/10 08:17:12;;;;;;;33.67;30.67;;;;;;;3.05;71.61;94834.75;5079219;28;20204;-68
2023/12/10 08:19:40;;;;;;;35.28;32.05;;;;;;;3.02;72.04;94835.38;5079752;28;20299;-68
2023/12/10 08:22:08;;;;;;;34.25;31.05;;;;;;;3.01;72.24;94831.81;5079310;28;20200;-68
2023/12/10 08:24:35;;;;;;;34.65;31.45;;;;;;;3.02;72.06;94838.91;5078511;28;20329;-67
2023/12/10 08:27:04;;;;;;;34.83;31.73;;;;;;;3.01;72.06;94836.47;5079500;28;20188;-67
2023/12/10 08:29:32;;;;;;;34.25;31.15;;;;;;;2.96;72.28;94833.91;5079846;28;20262;-67
2023/12/10 08:31:59;;;;;;;34.17;31.05;;;;;;;2.92;72.48;94830.19;5078916;28;20201;-67
2023/12/10 08:34:27;;;;;;;33.67;30.48;;;;;;;2.92;72.78;94830.19;5096379;28;20192;-68
2023/12/10 08:36:55;;;;;;;33.33;30.33;;;;;;;2.89;72.58;94818.78;5079027;28;20208;-68
2023/12/10 08:39:26;;;;;;;32.33;29.33;;;;;;;2.93;73.14;94813.50;5079075;28;20231;-68
2023/12/10 08:41:53;;;;;;;33.03;30.13;;;;;;;2.93;72.99;94810.00;5079147;28;20200;-68
2023/12/10 08:44:25;;;;;;;33.03;30.02;;;;;;;2.96;73.07;94810.19;5095879;28;20212;-68
2023/12/10 08:46:55;;;;;;;31.73;28.73;;;;;;;2.98;73.27;94813.41;5095280;28;20193;-68
2023/12/10 08:49:22;;;;;;;30.52;27.80;;;;;;;3.02;73.23;94814.38;5079343;28;20193;-67
2023/12/10 08:51:49;;;;;;;28.83;26.25;;;;;;;3.00;73.08;94810.34;5078623;28;20200;-67
2023/12/10 08:54:16;;;;;;;28.25;25.85;;;;;;;2.99;72.93;94811.47;5079294;28;20208;-67
2023/12/10 08:56:46;;;;;;;29.08;26.48;;;;;;;2.97;72.83;94806.31;5079107;28;20192;-67
2023/12/10 08:59:13;;;;;;;29.35;26.65;;;;;;;2.95;72.80;94805.03;5078981;28;20192;-67
2023/12/10 09:01:42;;;;;;;27.80;25.45;;;;;;;2.94;73.04;94800.69;5078627;28;20246;-67
2023/12/10 09:04:10;;;;;;;28.60;26.20;;;;;;;2.93;73.30;94805.34;5078566;28;20224;-67
2023/12/10 09:06:37;;;;;;;29.95;27.35;;;;;;;2.95;73.19;94794.94;5078310;28;20242;-68
2023/12/10 09:09:04;;;;;;;30.10;27.45;;;;;;;2.95;73.06;94794.16;5078049;28;20196;-68
2023/12/10 09:11:33;;;;;;;29.45;26.92;;;;;;;2.92;73.21;94792.03;5095481;28;20535;-67
2023/12/10 09:14:02;;;;;;;31.33;28.63;;;;;;;2.91;73.15;94788.53;5094906;28;20200;-67
2023/12/10 09:16:29;;;;;;;31.13;28.42;;;;;;;2.90;73.17;94786.88;5078338;28;20204;-67
2023/12/10 09:18:59;;;;;;;30.95;28.15;;;;;;;2.92;73.37;94792.84;5095558;28;20197;-67
2023/12/10 09:21:29;;;;;;;31.23;28.40;;;;;;;2.91;73.04;94782.28;5094992;28;20632;-67
2023/12/10 09:23:57;;;;;;;29.90;27.20;;;;;;;2.89;73.36;94775.19;5077928;28;20219;-68
2023/12/10 09:26:25;;;;;;;31.88;28.95;;;;;;;2.92;73.24;94773.78;5095698;28;20208;-68
2023/12/10 09:28:55;;;;;;;31.15;28.35;;;;;;;2.94;73.49;94778.91;5095736;28;20199;-67
2023/12/10 09:31:22;;;;;;;31.23;28.52;;;;;;;2.96;73.45;94771.22;5094587;28;20188;-67
2023/12/10 09:33:50;;;;;;;31.95;29.15;;;;;;;2.94;73.08;94782.44;5077876;28;20192;-67
2023/12/10 09:36:19;;;;;;;31.27;28.48;;;;;;;2.95;73.73;94773.16;5077678;28;20220;-67
2023/12/10 09:38:46;;;;;;;31.38;28.67;;;;;;;2.99;73.25;94767.88;5077725;28;20257;-68
2023/12/10 09:41:15;;;;;;;33.13;30.17;;;;;;;3.05;73.15;94758.44;5078089;28;20197;-67
2023/12/10 09:43:42;;;;;;;30.98;28.30;;;;;;;3.11;72.70;94758.00;5077485;28;20234;-67
2023/12/10 09:46:10;;;;;;;30.20;27.45;;;;;;;3.20;73.17;94755.34;5078452;28;20203;-67
2023/12/10 09:48:42;;;;;;;33.33;30.40;;;;;;;3.26;72.04;94754.06;5094457;28;20208;-67
2023/12/10 09:51:09;;;;;;;32.90;30.00;;;;;;;3.29;72.75;94758.09;5094890;28;20275;-67
2023/12/10 09:53:40;;;;;;;32.75;29.75;;;;;;;3.27;71.93;94750.25;5077964;28;20265;-67
2023/12/10 09:56:09;;;;;;;31.70;28.90;;;;;;;3.24;72.16;94741.88;5095015;28;20208;-67
2023/12/10 09:58:37;;;;;;;31.17;28.48;;;;;;;3.26;72.17;94745.09;5094593;28;20208;-68
2023/12/10 10:01:08;;;;;;;29.48;26.65;;;;;;;3.42;72.61;94749.00;5094792;28;20214;-68
2023/12/10 10:03:37;;;;;;;29.20;26.48;;;;;;;3.80;73.01;94737.56;5077443;28;20216;-68
2023/12/10 10:06:04;;;;;;;29.90;27.10;;;;;;;4.56;71.94;94737.13;5078182;28;20261;-68
2023/12/10 10:08:32;;;;;;;29.85;27.17;;;;;;;5.34;68.86;94742.41;5093996;28;20212;-68
2023/12/10 10:11:03;;;;;;;29.30;26.60;;;;;;;5.95;65.93;94739.41;5078193;28;20200;-68
2023/12/10 10:13:30;;;;;;;31.92;28.98;;;;;;;6.17;63.27;94743.75;5077232;28;20204;-68
2023/12/10 10:15:57;;;;;;;29.55;26.77;;;;;;;6.12;62.83;94744.78;5054053;28;20248;-68
2023/12/10 10:18:26;;;;;;;25.73;23.42;;;;;;;6.00;62.19;94740.03;5053965;28;20613;-68
2023/12/10 10:20:53;;;;;;;27.77;25.13;;;;;;;5.78;62.52;94743.81;5053691;28;20204;-68
2023/12/10 10:23:30;;;;;;;27.52;24.83;;;;;;;5.64;63.57;94742.44;5054279;28;20237;-68
2023/12/10 10:26:00;;;;;;;26.52;24.17;;;;;;;5.53;63.92;94736.53;5053961;28;20601;-67
2023/12/10 10:28:29;;;;;;;25.48;23.35;;;;;;;5.35;63.30;94727.59;5054056;28;20688;-68
2023/12/10 10:30:58;;;;;;;25.15;22.80;;;;;;;5.23;63.62;94724.78;5054119;28;20201;-68
2023/12/10 10:33:28;;;;;;;27.77;25.17;;;;;;;5.18;64.38;94730.41;5054725;28;20210;-68
2023/12/10 10:35:55;;;;;;;29.25;26.45;;;;;;;5.09;64.96;94732.38;5053702;28;20304;-67
2023/12/10 10:38:22;;;;;;;30.42;27.58;;;;;;;5.03;65.19;94723.53;5054246;28;20251;-67
2023/12/10 10:40:49;;;;;;;28.90;26.27;;;;;;;5.05;65.33;94730.28;5053672;28;20228;-67
2023/12/10 10:43:22;;;;;;;28.25;25.65;;;;;;;5.03;65.34;94732.53;5053842;28;20186;-67
2023/12/10 10:45:52;;;;;;;24.52;22.30;;;;;;;5.03;64.75;94716.13;5054517;28;20630;-67
2023/12/10 10:48:25;;;;;;;28.00;25.30;;;;;;;5.03;65.34;94713.41;5056530;28;20193;-67
2023/12/10 10:50:52;;;;;;;28.63;25.90;;;;;;;5.05;65.44;94716.63;5058227;28;20221;-67
2023/12/10 10:53:23;;;;;;;27.38;24.77;;;;;;;5.11;65.40;94709.03;5057904;28;20288;-67
2023/12/10 10:55:50;;;;;;;23.30;21.10;;;;;;;5.13;65.42;94711.44;5057859;28;20198;-67
2023/12/10 10:58:29;;;;;;;22.05;19.95;;;;;;;5.11;65.09;94706.28;5058310;28;20231;-68
2023/12/10 11:00:58;;;;;;;21.70;19.80;;;;;;;5.08;64.97;94701.47;5057644;28;20209;-68
2023/12/10 11:03:27;;;;;;;25.15;22.77;;;;;;;5.15;64.18;94700.97;5058044;28;20205;-68
2023/12/10 11:06:00;;;;;;;27.02;24.45;;;;;;;5.45;65.24;94688.16;5057126;28;20305;-68
2023/12/10 11:08:28;;;;;;;24.23;22.00;;;;;;;5.96;64.46;94680.81;5057619;28;20229;-68
2023/12/10 11:11:00;;;;;;;23.40;21.10;;;;;;;6.48;62.41;94688.59;5057789;28;20205;-67
2023/12/10 11:13:45;;;;;;;22.98;20.83;;;;;;;7.38;59.39;94679.56;5058056;28;20207;-67
2023/12/10 11:16:14;;;;;;;23.25;20.95;;;;;;;7.92;57.96;94671.09;5054062;28;20213;-67
2023/12/10 11:18:52;;;;;;;22.85;20.75;;;;;;;8.67;55.12;94672.50;5057967;28;20210;-67
2023/12/10 11:21:21;;;;;;;23.65;21.45;;;;;;;9.23;52.80;94679.91;5057323;28;20209;-67
2023/12/10 11:23:48;;;;;;;21.95;19.95;;;;;;;9.74;52.16;94668.97;5056982;28;20202;-68
2023/12/10 11:26:16;;;;;;;21.27;19.38;;;;;;;10.47;49.86;94670.25;5057180;28;20205;-68
2023/12/10 11:28:48;;;;;;;22.30;20.30;;;;;;;11.53;46.78;94656.84;5057913;28;20195;-68